CheckWX is a tool to help pilots better visualize weather data.  It is not intended as a substitute for an official pre-flight weather briefing.

01:09:10 UTC

KAHN METAR
Athens / Ben Epps Airport
Athens, Georgia, USA
Current

18 mins ago

KAHN 200051Z AUTO VRB03KT 10SM CLR 23/22 A3006 RMK AO2 SLP173 T02280217
Observed
Jul-20 @ 00:51 UTC
Wind
  • Variable at 3 KTS
Visibility
10 SM
Flight Rules
VFR
Cloud Levels
  • Clear skies
Temperature
23°C / 73°F
Dewpoint
22°C / 72°F
Humidity
94%
Altimeter
30.06" Hg
Pressure
1017.92 hPa
Previous

1 hour ago

KAHN 192351Z AUTO 27003KT 10SM CLR 23/22 A3004 RMK AO2 RAE11 SLP165 P0000 60056 T02330217 10361 20222 50004
Observed
Jul-19 @ 23:51 UTC
Wind
  • 270° at 3 KTS
Visibility
10 SM
Flight Rules
VFR
Cloud Levels
  • Clear skies
Temperature
23°C / 73°F
Dewpoint
22°C / 72°F
Humidity
94%
Altimeter
30.04" Hg
Pressure
1017.32 hPa
Current Rain
0.01"
Previous

2 hours ago

KAHN 192251Z 25004KT 10SM -RA SCT055 BKN070 OVC100 23/22 A3005 RMK AO2 TSE32 SLP169 P0005 T02280217
Observed
Jul-19 @ 22:51 UTC
Wind
  • 250° at 4 KTS
Visibility
10 SM
Flight Rules
VFR
Conditions
Light Rain
Cloud Levels
  • Scattered at 5,500' AGL
  • Broken at 7,000' AGL
  • Overcast at 10,000' AGL
Temperature
23°C / 73°F
Dewpoint
22°C / 72°F
Humidity
94%
Altimeter
30.05" Hg
Pressure
1017.62 hPa
Current Rain
0.05"